Latest Weather Observations for Tasman Island

IDT60901

Issued at 12:05 pm EST Saturday 30 August 2014 (issued every 10 minutes, with the page automatically refreshed every 10 minutes)

About weather observations | Map of Hobart area stations | Latest observations for Hobart area | Other Formats
Station Details ID: 094155 Name: TASMAN ISLAND Lat: -43.24 Lon: 148.00 Height: 240.0 m
Data from the previous 72 hours. | See also: Recent months at Tasman Island
Date/Time
EST
Tmp

°C
App
Tmp
°C
Dew
Point
°C
Rel
Hum
%
Delta-T

°C
Wind Press
QNH
hPa
Press
MSL
hPa
Rain
since
9 am
mm
Dir
 
Spd
km/h
Gust
km/h
Spd
kts
Gust
kts
30/12:00pm 12.1 5.1 9.8 86 1.2 NNE 37 56 20 30 1026.2 1026.6 0.2
30/11:30am 11.8 4.4 9.9 88 1.0 NNE 39 54 21 29 1026.7 1027.1 0.2
30/11:00am 12.0 5.4 10.1 88 1.0 NNE 35 48 19 26 1027.1 1027.5 0.2
30/10:30am 11.7 5.0 9.8 88 1.0 NNE 35 52 19 28 1027.4 1027.8 0.0
30/10:00am 11.7 5.0 9.8 88 1.0 NNE 35 46 19 25 1027.9 1028.3 0.0
30/09:30am 11.3 4.4 8.9 85 1.2 N 35 46 19 25 1028.1 1028.5 0.0
30/09:00am 11.3 4.0 7.4 77 1.9 N 35 44 19 24 1028.3 1028.7 0.0
30/08:30am 10.9 3.7 9.3 90 0.8 N 37 46 20 25 1028.3 1028.7 0.0
30/08:00am 10.6 3.4 7.8 83 1.4 N 35 44 19 24 1028.3 1028.7 0.0
30/07:30am 10.2 3.1 8.1 87 1.0 N 35 52 19 28 1028.1 1028.5 0.0
30/07:00am 10.1 3.1 8.5 90 0.8 N 35 46 19 25 1028.0 1028.4 0.0
30/06:30am 9.9 3.7 9.3 96 0.3 N 32 41 17 22 1028.0 1028.4 0.0
30/06:00am 9.8 4.5 9.7 99 0.1 N 28 39 15 21 1028.1 1028.5 0.0
30/05:30am 10.0 5.1 9.9 99 0.1 N 26 35 14 19 1028.2 1028.6 0.0
30/05:00am 10.0 5.5 9.9 99 0.1 NNE 24 32 13 17 1028.3 1028.7 0.0
30/04:30am 10.1 5.9 9.8 98 0.2 NNE 22 32 12 17 1028.3 1028.7 0.0
30/04:00am 10.0 3.8 9.5 97 0.3 N 32 41 17 22 1028.2 1028.6 0.0
30/03:30am 10.0 4.2 9.5 97 0.3 N 30 37 16 20 1028.4 1028.8 0.0
30/03:00am 9.9 5.2 9.4 97 0.3 N 24 35 13 19 1028.5 1028.9 0.0
30/02:30am 10.0 5.3 9.4 96 0.3 N 24 33 13 18 1028.7 1029.1 0.0
30/02:00am 10.2 5.2 9.7 97 0.3 NNE 26 35 14 19 1028.8 1029.2 0.0
30/01:30am 10.2 6.3 9.4 95 0.4 N 20 33 11 18 1028.9 1029.3 0.0
30/01:00am 10.3 6.0 9.2 93 0.5 N 22 30 12 16 1029.1 1029.5 0.0
30/12:30am 10.4 6.3 8.0 85 1.2 N 19 28 10 15 1029.2 1029.6 0.0
30/12:00am 10.7 6.3 6.6 76 1.9 N 19 26 10 14 1029.2 1029.6 0.0
 
Date/Time
EST
Tmp

°C
App
Tmp
°C
Dew
Point
°C
Rel
Hum
%
Delta-T

°C
Wind Press
QNH
hPa
Press
MSL
hPa
Rain
since
9 am
mm
Dir
 
Spd
km/h
Gust
km/h
Spd
kts
Gust
kts
29/11:30pm 10.9 6.1 5.4 69 2.6 N 20 28 11 15 1029.3 1029.7 0.0
29/11:00pm 10.9 6.0 5.0 67 2.7 N 20 30 11 16 1029.4 1029.8 0.0
29/10:30pm 10.2 6.1 8.6 90 0.8 N 20 30 11 16 1029.5 1029.9 0.0
29/10:00pm 10.2 6.1 8.8 91 0.7 N 20 30 11 16 1029.6 1030.0 0.0
29/09:30pm 10.4 6.5 8.7 89 0.8 N 19 30 10 16 1029.7 1030.1 0.0
29/09:00pm 10.2 6.3 8.6 90 0.8 NNE 19 28 10 15 1029.7 1030.1 0.0
29/08:30pm 10.1 6.0 7.9 86 1.1 NNE 19 28 10 15 1029.6 1030.0 0.0
29/08:00pm 10.0 5.6 6.7 80 1.6 NNE 19 28 10 15 1029.7 1030.1 0.0
29/07:30pm 9.9 6.9 9.1 95 0.4 NNE 15 22 8 12 1029.5 1029.9 0.0
29/07:00pm 9.9 6.9 9.4 97 0.2 NNE 15 22 8 12 1029.6 1030.0 0.0
29/06:30pm 10.0 7.1 9.7 98 0.2 NNE 15 22 8 12 1029.6 1030.0 0.0
29/06:00pm 10.2 7.3 9.6 96 0.3 NE 15 20 8 11 1029.5 1029.9 0.0
29/05:30pm 10.3 8.4 9.2 93 0.6 ENE 9 19 5 10 1029.3 1029.7 0.0
29/05:00pm 10.8 8.9 9.2 90 0.8 E 9 15 5 8 1029.3 1029.7 0.0
29/04:30pm 11.2 9.0 9.3 88 1.0 E 11 17 6 9 1029.1 1029.5 0.0
29/04:00pm 11.8 10.3 9.2 84 1.3 E 7 11 4 6 1029.1 1029.5 0.0
29/03:30pm 12.1 10.3 9.3 83 1.4 ENE 9 13 5 7 1028.9 1029.3 0.0
29/03:00pm 12.5 11.0 9.1 80 1.7 ENE 7 13 4 7 1028.9 1029.3 0.0
29/02:30pm 12.6 10.7 9.1 79 1.8 E 9 13 5 7 1029.0 1029.4 0.0
29/02:00pm 13.2 11.0 9.3 77 2.0 ENE 11 19 6 10 1028.9 1029.3 0.0
29/01:30pm 13.4 12.0 9.6 78 2.0 ENE 7 11 4 6 1029.1 1029.5 0.0
29/01:00pm 13.3 11.9 9.7 79 1.9 NE 7 17 4 9 1029.3 1029.7 0.0
29/12:30pm 13.2 11.5 8.5 73 2.4 ENE 7 11 4 6 1029.3 1029.7 0.0
29/12:00pm 12.9 11.4 8.4 74 2.2 E 6 9 3 5 1029.5 1029.9 0.0
29/11:30am 12.8 11.3 8.3 74 2.3 E 6 9 3 5 1029.6 1030.0 0.0
29/11:00am 12.5 10.9 7.8 73 2.3 E 6 9 3 5 1029.6 1030.0 0.0
29/10:30am 13.3 12.1 9.5 78 2.0 S 6 11 3 6 1029.8 1030.2 0.0
29/10:00am 12.5 11.1 8.8 78 1.9 SSE 6 9 3 5 1029.8 1030.2 0.0
29/09:30am 12.4 10.8 8.7 78 1.9 S 7 9 4 5 1029.7 1030.1 0.0
29/09:00am 12.5 11.6 9.3 81 1.6 S 4 7 2 4 1029.6 1030.0 0.0
29/08:30am 12.7 11.5 9.7 82 1.5 SE 6 9 3 5 1029.4 1029.8 0.0
29/08:00am 11.2 10.4 9.5 89 0.9 SE 4 7 2 4 1029.1 1029.5 0.0
29/07:30am 9.6 8.0 8.2 91 0.7 WSW 6 7 3 4 1029.0 1029.4 0.0
29/07:00am 8.5 6.1 7.1 91 0.7 WSW 9 11 5 6 1028.7 1029.1 0.0
29/06:30am 8.8 6.1 7.4 91 0.7 SW 11 13 6 7 1028.3 1028.7 0.0
29/06:00am 9.2 6.6 7.6 90 0.8 WSW 11 15 6 8 1028.1 1028.5 0.0
29/05:30am 9.6 7.4 7.7 88 0.9 W 9 13 5 7 1028.0 1028.4 0.0
29/05:00am 9.6 7.7 7.5 87 1.0 WSW 7 9 4 5 1027.7 1028.1 0.0
29/04:30am 9.9 7.7 7.7 86 1.1 W 9 13 5 7 1027.6 1028.0 0.0
29/04:00am 9.7 7.4 7.3 85 1.1 W 9 11 5 6 1027.4 1027.8 0.0
29/03:30am 10.0 8.1 7.6 85 1.2 W 7 11 4 6 1027.4 1027.8 0.0
29/03:00am 10.0 8.4 8.6 91 0.7 NW 7 9 4 5 1027.3 1027.7 0.0
29/02:30am 9.4 7.4 8.6 95 0.4 NW 9 11 5 6 1027.4 1027.8 0.0
29/02:00am 9.3 7.9 9.0 98 0.1 W 6 9 3 5 1027.6 1028.0 0.0
29/01:30am 9.5 8.1 9.0 97 0.2 W 6 9 3 5 1027.7 1028.1 0.0
29/01:00am 9.9 8.4 9.1 95 0.4 W 7 11 4 6 1027.6 1028.0 0.0
29/12:30am 9.6 7.4 7.9 89 0.8 W 9 11 5 6 1027.6 1028.0 0.0
29/12:00am 10.2 8.2 7.1 81 1.5 W 7 9 4 5 1027.6 1028.0 0.0
 
Date/Time
EST
Tmp

°C
App
Tmp
°C
Dew
Point
°C
Rel
Hum
%
Delta-T

°C
Wind Press
QNH
hPa
Press
MSL
hPa
Rain
since
9 am
mm
Dir
 
Spd
km/h
Gust
km/h
Spd
kts
Gust
kts
28/11:30pm 10.9 9.4 7.0 77 1.9 WNW 4 6 2 3 1027.7 1028.1 0.0
28/11:00pm 11.1 9.4 7.6 79 1.7 NW 6 7 3 4 1027.4 1027.8 0.0
28/10:30pm 10.8 8.9 7.7 81 1.5 N 7 11 4 6 1027.6 1028.0 0.0
28/10:00pm 11.1 9.5 8.1 82 1.5 NW 6 9 3 5 1027.7 1028.1 0.0
28/09:30pm 10.7 8.5 7.9 83 1.4 NNW 9 11 5 6 1027.8 1028.2 0.0
28/09:00pm 10.9 8.7 7.8 81 1.5 N 9 13 5 7 1027.7 1028.1 0.0
28/08:30pm 11.0 8.0 7.5 79 1.7 N 13 19 7 10 1027.8 1028.2 0.0
28/08:00pm 11.6 8.2 7.7 77 1.9 N 15 22 8 12 1027.8 1028.2 0.0
28/07:30pm 11.3 7.1 8.2 81 1.5 N 20 28 11 15 1027.7 1028.1 0.0
28/07:00pm 11.0 6.2 8.9 87 1.0 N 24 32 13 17 1027.6 1028.0 0.0
28/06:30pm 11.1 5.4 8.3 83 1.4 N 28 35 15 19 1027.6 1028.0 0.0
28/06:00pm 11.1 5.5 8.8 86 1.1 N 28 37 15 20 1027.3 1027.7 0.0
28/05:30pm 11.1 5.1 8.7 85 1.2 N 30 35 16 19 1027.1 1027.5 0.0
28/05:00pm 11.0 6.2 8.8 86 1.1 N 24 30 13 16 1027.1 1027.5 0.0
28/04:30pm 11.2 6.1 9.1 87 1.1 N 26 33 14 18 1027.0 1027.4 0.0
28/04:00pm 11.4 7.0 9.0 85 1.2 N 22 30 12 16 1027.0 1027.4 0.0
28/03:30pm 11.3 6.9 8.9 85 1.2 N 22 30 12 16 1027.1 1027.5 0.0
28/03:00pm 11.6 7.3 9.2 85 1.2 N 22 28 12 15 1027.1 1027.5 0.0
28/02:30pm 11.7 8.2 8.6 81 1.6 NNE 17 26 9 14 1027.2 1027.6 0.0
28/02:00pm 12.1 8.1 8.9 81 1.6 NNE 20 26 11 14 1027.2 1027.6 0.0
28/01:30pm 11.6 9.1 8.3 80 1.6 NNE 11 19 6 10 1027.3 1027.7 0.0
28/01:00pm 12.3 10.5 8.0 75 2.1 NNE 7 15 4 8 1027.8 1028.2 0.0
28/12:30pm 10.9 6.8 7.8 81 1.5 NE 19 24 10 13 1028.0 1028.4 0.0
28/12:00pm 11.5 8.2 6.6 72 2.3 NE 13 19 7 10 1028.3 1028.7 0.0
28/11:30am 11.5 7.9 6.8 73 2.3 NNE 15 20 8 11 1028.7 1029.1 0.0
28/11:00am 12.1 9.4 8.9 81 1.6 NNE 13 20 7 11 1029.1 1029.5 0.0
28/10:30am 11.8 9.6 9.2 84 1.3 NE 11 17 6 9 1029.0 1029.4 0.0
28/10:00am 11.7 10.1 8.9 83 1.4 ENE 7 15 4 8 1029.1 1029.5 0.0
28/09:30am 12.3 11.0 9.3 82 1.5 ENE 6 11 3 6 1029.3 - 0.0
28/09:00am 13.2 12.4 10.9 86 1.2 NE 6 9 3 5 1029.3 1029.7 0.2
28/08:30am 11.6 10.9 10.2 91 0.7 E 4 7 2 4 1029.3 - 0.2
28/08:00am 11.2 10.5 10.1 93 0.6 ENE 4 4 2 2 1029.2 1029.6 0.2
28/07:30am 10.7 9.9 9.8 94 0.5 NE 4 6 2 3 1029.1 - 0.2
28/07:00am 10.5 9.7 9.6 94 0.5 NE 4 6 2 3 1028.8 1029.2 0.2
28/06:30am 10.6 9.8 9.7 94 0.5 E 4 6 2 3 1028.5 - 0.2
28/06:00am 10.4 9.5 9.3 93 0.6 SSE 4 6 2 3 1028.5 1028.9 0.2
28/05:30am 10.4 9.1 9.2 92 0.6 SE 6 7 3 4 1028.4 - 0.2
28/05:00am 10.5 9.2 9.1 91 0.7 SE 6 7 3 4 1028.3 1028.7 0.2
28/04:30am 10.6 10.1 9.4 92 0.6 ESE 2 6 1 3 1028.3 - 0.2
28/04:00am 10.7 9.5 9.5 92 0.6 SE 6 9 3 5 1028.1 1028.5 0.2
28/03:30am 10.6 9.8 9.5 93 0.6 SE 4 7 2 4 1028.3 - 0.0
28/03:00am 10.4 9.2 9.5 94 0.5 SE 6 7 3 4 1028.3 1028.7 0.0
28/02:30am 10.1 8.8 9.3 95 0.4 S 6 7 3 4 1028.5 - 0.0
28/02:00am 10.2 8.9 9.3 94 0.5 SSW 6 9 3 5 1028.7 1029.1 0.0
28/01:30am 10.3 9.0 9.2 93 0.6 SW 6 9 3 5 1028.8 - 0.0
28/01:00am 10.7 9.2 9.1 90 0.8 S 7 11 4 6 1028.8 1029.2 0.0
28/12:30am 10.8 8.9 9.1 89 0.9 S 9 13 5 7 1028.7 - 0.0
28/12:00am 10.9 8.3 9.2 89 0.9 S 13 15 7 8 1028.6 1029.0 0.0
 
Date/Time
EST
Tmp

°C
App
Tmp
°C
Dew
Point
°C
Rel
Hum
%
Delta-T

°C
Wind Press
QNH
hPa
Press
MSL
hPa
Rain
since
9 am
mm
Dir
 
Spd
km/h
Gust
km/h
Spd
kts
Gust
kts
27/11:30pm 10.9 8.0 9.7 92 0.6 S 15 19 8 10 1028.5 - 0.0
27/11:00pm 10.6 7.8 10.0 96 0.3 S 15 22 8 12 1028.8 1029.2 0.0
27/10:30pm 10.5 8.1 10.0 97 0.3 S 13 22 7 12 1028.6 - 0.0
27/10:00pm 10.5 7.8 10.3 99 0.1 S 15 22 8 12 1028.7 1029.1 0.0
27/09:30pm 11.1 8.5 10.6 97 0.3 S 15 20 8 11 1028.5 - 0.0
27/09:00pm 11.2 8.8 10.0 92 0.6 SW 13 19 7 10 1028.3 1028.7 0.0
27/08:30pm 11.4 8.8 7.7 78 1.8 W 11 15 6 8 1028.1 - 0.0
27/08:00pm 12.1 10.4 7.6 74 2.2 WSW 6 7 3 4 1027.9 1028.3 0.0
27/07:30pm 13.1 11.4 7.5 69 2.8 N 6 6 3 3 1027.7 - 0.0
27/07:00pm 12.8 11.6 7.9 72 2.4 NNW 4 6 2 3 1027.8 1028.2 0.0
27/06:30pm 12.3 9.6 7.4 72 2.4 NNE 11 15 6 8 1027.3 - 0.0
27/06:00pm 12.3 9.3 7.8 74 2.2 NNE 13 19 7 10 1027.2 1027.6 0.0
27/05:30pm 12.1 9.6 8.0 76 2.0 NNE 11 17 6 9 1027.1 - 0.0
27/05:00pm 12.8 10.0 8.5 75 2.2 NNE 13 17 7 9 1027.0 1027.4 0.0
27/04:30pm 13.3 10.5 8.6 73 2.4 NNE 13 19 7 10 1026.9 - 0.0
27/04:00pm 13.5 10.7 8.6 72 2.5 NNE 13 19 7 10 1026.7 1027.1 0.0
27/03:30pm 13.7 10.6 9.0 73 2.4 NNE 15 22 8 12 1026.7 - 0.0
27/03:00pm 14.0 10.8 8.6 70 2.7 NNE 15 20 8 11 1026.7 1027.1 0.0
27/02:30pm 13.6 9.4 8.4 71 2.6 N 20 30 11 16 1026.6 - 0.0
27/02:00pm 14.1 10.3 8.9 71 2.7 N 19 30 10 16 1026.8 1027.2 0.0
27/01:30pm 14.0 10.9 9.0 72 2.6 NNE 15 22 8 12 1026.7 - 0.0
27/01:00pm 14.4 11.0 9.2 71 2.7 N 17 24 9 13 1026.9 1027.3 0.0
27/12:30pm 14.3 11.2 8.7 69 2.9 NNE 15 22 8 12 1027.1 - 0.0

Latest Capital City Observations: Canberra | Sydney | Melbourne | Brisbane | Adelaide | Perth | Hobart | Darwin

Other Formats:

Comma delimited format used in spreadsheet applications
http://www.bom.gov.au/fwo/IDT60901/IDT60901.95986.axf

JavaScript Object Notation format (JSON) in row-major order
http://www.bom.gov.au/fwo/IDT60901/IDT60901.95986.json